sensor_id;sensor_type;location;lat;lon;timestamp;P1;durP1;ratioP1;P2;durP2;ratioP2
46753;SDS011;32500;50.620;3.400;2022-08-03T00:01:26;62.58;;;51.17;;
46753;SDS011;32500;50.620;3.400;2022-08-03T00:03:52;62.38;;;51.05;;
46753;SDS011;32500;50.620;3.400;2022-08-03T00:06:17;63.25;;;50.90;;
46753;SDS011;32500;50.620;3.400;2022-08-03T00:08:43;61.58;;;50.63;;
46753;SDS011;32500;50.620;3.400;2022-08-03T00:11:09;62.75;;;51.10;;
46753;SDS011;32500;50.620;3.400;2022-08-03T00:13:34;65.75;;;50.92;;
46753;SDS011;32500;50.620;3.400;2022-08-03T00:16:00;61.97;;;50.97;;
46753;SDS011;32500;50.620;3.400;2022-08-03T00:18:26;62.63;;;50.88;;
46753;SDS011;32500;50.620;3.400;2022-08-03T00:20:51;61.75;;;50.95;;
46753;SDS011;32500;50.620;3.400;2022-08-03T00:23:17;61.72;;;50.72;;
46753;SDS011;32500;50.620;3.400;2022-08-03T00:25:42;62.60;;;50.92;;
46753;SDS011;32500;50.620;3.400;2022-08-03T00:28:08;62.22;;;50.90;;
46753;SDS011;32500;50.620;3.400;2022-08-03T00:30:34;61.75;;;50.95;;
46753;SDS011;32500;50.620;3.400;2022-08-03T00:33:00;61.22;;;50.78;;
46753;SDS011;32500;50.620;3.400;2022-08-03T00:35:26;61.03;;;50.75;;
46753;SDS011;32500;50.620;3.400;2022-08-03T00:37:52;61.72;;;50.85;;
46753;SDS011;32500;50.620;3.400;2022-08-03T00:40:18;61.75;;;50.95;;
46753;SDS011;32500;50.620;3.400;2022-08-03T00:42:48;62.65;;;50.92;;
46753;SDS011;32500;50.620;3.400;2022-08-03T00:45:17;62.78;;;51.13;;
46753;SDS011;32500;50.620;3.400;2022-08-03T00:47:47;61.20;;;50.55;;
46753;SDS011;32500;50.620;3.400;2022-08-03T00:50:14;62.05;;;50.85;;
46753;SDS011;32500;50.620;3.400;2022-08-03T00:52:40;62.08;;;50.95;;
46753;SDS011;32500;50.620;3.400;2022-08-03T00:55:06;62.00;;;50.75;;
46753;SDS011;32500;50.620;3.400;2022-08-03T00:57:32;62.53;;;50.83;;
46753;SDS011;32500;50.620;3.400;2022-08-03T00:59:58;61.17;;;50.63;;
46753;SDS011;32500;50.620;3.400;2022-08-03T01:02:25;62.63;;;50.85;;
46753;SDS011;32500;50.620;3.400;2022-08-03T01:04:51;62.47;;;50.92;;
46753;SDS011;32500;50.620;3.400;2022-08-03T01:18:05;61.80;;;50.65;;
46753;SDS011;32500;50.620;3.400;2022-08-03T01:20:37;62.35;;;50.75;;
46753;SDS011;32500;50.620;3.400;2022-08-03T01:31:39;61.63;;;50.75;;
46753;SDS011;32500;50.620;3.400;2022-08-03T01:34:10;62.63;;;50.92;;
46753;SDS011;32500;50.620;3.400;2022-08-03T01:36:42;62.25;;;50.97;;
46753;SDS011;32500;50.620;3.400;2022-08-03T01:39:12;61.60;;;50.65;;
46753;SDS011;32500;50.620;3.400;2022-08-03T01:41:47;62.03;;;50.67;;
46753;SDS011;32500;50.620;3.400;2022-08-03T01:44:23;61.47;;;50.63;;
46753;SDS011;32500;50.620;3.400;2022-08-03T01:46:53;62.17;;;50.78;;
46753;SDS011;32500;50.620;3.400;2022-08-03T01:49:22;61.40;;;50.67;;
46753;SDS011;32500;50.620;3.400;2022-08-03T01:51:49;62.28;;;50.72;;
46753;SDS011;32500;50.620;3.400;2022-08-03T01:54:16;62.13;;;50.67;;
46753;SDS011;32500;50.620;3.400;2022-08-03T01:56:43;61.30;;;50.67;;
46753;SDS011;32500;50.620;3.400;2022-08-03T01:59:10;62.67;;;50.65;;
46753;SDS011;32500;50.620;3.400;2022-08-03T02:01:38;61.92;;;50.40;;
46753;SDS011;32500;50.620;3.400;2022-08-03T02:04:05;62.80;;;50.70;;
46753;SDS011;32500;50.620;3.400;2022-08-03T02:06:33;61.53;;;50.45;;
46753;SDS011;32500;50.620;3.400;2022-08-03T02:09:02;61.55;;;50.45;;
46753;SDS011;32500;50.620;3.400;2022-08-03T02:11:30;61.47;;;50.60;;
46753;SDS011;32500;50.620;3.400;2022-08-03T02:13:57;62.95;;;50.63;;
46753;SDS011;32500;50.620;3.400;2022-08-03T02:16:25;61.08;;;50.47;;
46753;SDS011;32500;50.620;3.400;2022-08-03T02:18:53;61.85;;;50.47;;
46753;SDS011;32500;50.620;3.400;2022-08-03T02:21:20;61.05;;;50.45;;
46753;SDS011;32500;50.620;3.400;2022-08-03T02:23:47;61.58;;;50.72;;
46753;SDS011;32500;50.620;3.400;2022-08-03T02:26:13;61.92;;;50.33;;
46753;SDS011;32500;50.620;3.400;2022-08-03T02:28:44;62.42;;;50.45;;
46753;SDS011;32500;50.620;3.400;2022-08-03T02:31:14;61.55;;;50.30;;
46753;SDS011;32500;50.620;3.400;2022-08-03T02:33:46;61.47;;;50.58;;
46753;SDS011;32500;50.620;3.400;2022-08-03T02:36:15;61.10;;;50.42;;
46753;SDS011;32500;50.620;3.400;2022-08-03T02:38:43;61.67;;;50.53;;
46753;SDS011;32500;50.620;3.400;2022-08-03T02:41:17;61.28;;;50.53;;
46753;SDS011;32500;50.620;3.400;2022-08-03T02:43:49;60.75;;;50.55;;
46753;SDS011;32500;50.620;3.400;2022-08-03T02:46:18;61.58;;;50.45;;
46753;SDS011;32500;50.620;3.400;2022-08-03T02:48:46;61.22;;;50.45;;
46753;SDS011;32500;50.620;3.400;2022-08-03T02:51:14;62.53;;;50.78;;
46753;SDS011;32500;50.620;3.400;2022-08-03T02:53:42;61.35;;;50.30;;
46753;SDS011;32500;50.620;3.400;2022-08-03T02:56:10;60.92;;;50.45;;
46753;SDS011;32500;50.620;3.400;2022-08-03T02:58:37;62.20;;;50.65;;
46753;SDS011;32500;50.620;3.400;2022-08-03T03:01:06;62.72;;;50.55;;
46753;SDS011;32500;50.620;3.400;2022-08-03T03:03:33;62.80;;;50.53;;
46753;SDS011;32500;50.620;3.400;2022-08-03T03:05:59;62.38;;;50.75;;
46753;SDS011;32500;50.620;3.400;2022-08-03T03:08:26;61.38;;;50.67;;
46753;SDS011;32500;50.620;3.400;2022-08-03T03:10:54;63.97;;;50.85;;
46753;SDS011;32500;50.620;3.400;2022-08-03T03:13:24;61.30;;;50.35;;
46753;SDS011;32500;50.620;3.400;2022-08-03T03:15:53;61.53;;;50.45;;
46753;SDS011;32500;50.620;3.400;2022-08-03T03:18:20;61.88;;;50.80;;
46753;SDS011;32500;50.620;3.400;2022-08-03T03:20:46;61.30;;;50.45;;
46753;SDS011;32500;50.620;3.400;2022-08-03T03:23:14;62.17;;;50.45;;
46753;SDS011;32500;50.620;3.400;2022-08-03T03:25:41;60.78;;;50.42;;
46753;SDS011;32500;50.620;3.400;2022-08-03T03:28:08;61.60;;;50.50;;
46753;SDS011;32500;50.620;3.400;2022-08-03T03:30:34;61.65;;;50.45;;
46753;SDS011;32500;50.620;3.400;2022-08-03T03:33:00;61.88;;;50.53;;
46753;SDS011;32500;50.620;3.400;2022-08-03T03:35:26;61.30;;;50.42;;
46753;SDS011;32500;50.620;3.400;2022-08-03T03:37:52;60.85;;;50.65;;
46753;SDS011;32500;50.620;3.400;2022-08-03T03:40:18;61.33;;;50.25;;
46753;SDS011;32500;50.620;3.400;2022-08-03T03:42:44;61.10;;;50.28;;
46753;SDS011;32500;50.620;3.400;2022-08-03T03:45:10;60.80;;;50.60;;
46753;SDS011;32500;50.620;3.400;2022-08-03T03:47:36;62.90;;;50.42;;
46753;SDS011;32500;50.620;3.400;2022-08-03T03:50:03;62.30;;;50.55;;
46753;SDS011;32500;50.620;3.400;2022-08-03T03:52:30;61.85;;;50.35;;
46753;SDS011;32500;50.620;3.400;2022-08-03T03:54:56;60.95;;;50.42;;
46753;SDS011;32500;50.620;3.400;2022-08-03T03:57:22;61.70;;;50.40;;
46753;SDS011;32500;50.620;3.400;2022-08-03T03:59:48;61.50;;;50.53;;
46753;SDS011;32500;50.620;3.400;2022-08-03T04:02:13;61.00;;;50.35;;
46753;SDS011;32500;50.620;3.400;2022-08-03T04:04:39;62.97;;;50.45;;
46753;SDS011;32500;50.620;3.400;2022-08-03T04:07:24;60.65;;;50.28;;
46753;SDS011;32500;50.620;3.400;2022-08-03T04:10:13;60.40;;;50.20;;
46753;SDS011;32500;50.620;3.400;2022-08-03T04:13:04;60.53;;;50.60;;
46753;SDS011;32500;50.620;3.400;2022-08-03T04:15:34;62.45;;;50.45;;
46753;SDS011;32500;50.620;3.400;2022-08-03T04:18:03;61.33;;;50.40;;
46753;SDS011;32500;50.620;3.400;2022-08-03T04:20:32;61.22;;;50.58;;
46753;SDS011;32500;50.620;3.400;2022-08-03T04:23:00;60.88;;;50.47;;
46753;SDS011;32500;50.620;3.400;2022-08-03T04:25:29;61.03;;;50.33;;
46753;SDS011;32500;50.620;3.400;2022-08-03T04:27:58;63.35;;;50.92;;
46753;SDS011;32500;50.620;3.400;2022-08-03T04:30:26;62.63;;;50.30;;
46753;SDS011;32500;50.620;3.400;2022-08-03T04:32:55;62.85;;;50.75;;
46753;SDS011;32500;50.620;3.400;2022-08-03T04:35:23;61.20;;;50.47;;
46753;SDS011;32500;50.620;3.400;2022-08-03T04:37:51;62.28;;;50.53;;
46753;SDS011;32500;50.620;3.400;2022-08-03T04:40:24;61.72;;;50.63;;
46753;SDS011;32500;50.620;3.400;2022-08-03T04:42:54;60.78;;;50.50;;
46753;SDS011;32500;50.620;3.400;2022-08-03T04:45:22;61.22;;;50.70;;
46753;SDS011;32500;50.620;3.400;2022-08-03T04:47:49;63.17;;;50.70;;
46753;SDS011;32500;50.620;3.400;2022-08-03T04:50:15;60.42;;;50.50;;
46753;SDS011;32500;50.620;3.400;2022-08-03T04:52:41;61.78;;;50.55;;
46753;SDS011;32500;50.620;3.400;2022-08-03T04:55:08;62.28;;;51.03;;
46753;SDS011;32500;50.620;3.400;2022-08-03T04:57:34;61.33;;;50.45;;
46753;SDS011;32500;50.620;3.400;2022-08-03T04:59:59;61.10;;;50.60;;
46753;SDS011;32500;50.620;3.400;2022-08-03T05:02:25;61.63;;;50.97;;
46753;SDS011;32500;50.620;3.400;2022-08-03T05:04:51;60.97;;;50.92;;
46753;SDS011;32500;50.620;3.400;2022-08-03T05:07:17;62.08;;;51.08;;
46753;SDS011;32500;50.620;3.400;2022-08-03T05:09:43;61.80;;;50.67;;
46753;SDS011;32500;50.620;3.400;2022-08-03T05:12:09;61.60;;;50.80;;
46753;SDS011;32500;50.620;3.400;2022-08-03T05:14:35;61.95;;;50.88;;
46753;SDS011;32500;50.620;3.400;2022-08-03T05:17:02;64.22;;;50.72;;
46753;SDS011;32500;50.620;3.400;2022-08-03T05:19:30;62.70;;;50.85;;
46753;SDS011;32500;50.620;3.400;2022-08-03T05:21:56;62.40;;;50.92;;
46753;SDS011;32500;50.620;3.400;2022-08-03T05:24:22;60.60;;;50.42;;
46753;SDS011;32500;50.620;3.400;2022-08-03T05:26:48;62.85;;;50.67;;
46753;SDS011;32500;50.620;3.400;2022-08-03T05:29:13;61.78;;;50.53;;
46753;SDS011;32500;50.620;3.400;2022-08-03T05:31:39;62.50;;;50.63;;
46753;SDS011;32500;50.620;3.400;2022-08-03T05:34:05;63.25;;;51.10;;
46753;SDS011;32500;50.620;3.400;2022-08-03T05:36:30;62.75;;;51.13;;
46753;SDS011;32500;50.620;3.400;2022-08-03T05:38:56;67.03;;;51.63;;
46753;SDS011;32500;50.620;3.400;2022-08-03T05:41:22;67.53;;;51.47;;
46753;SDS011;32500;50.620;3.400;2022-08-03T05:43:47;70.30;;;51.65;;
46753;SDS011;32500;50.620;3.400;2022-08-03T05:46:13;67.30;;;51.42;;
46753;SDS011;32500;50.620;3.400;2022-08-03T05:48:39;63.65;;;51.13;;
46753;SDS011;32500;50.620;3.400;2022-08-03T05:51:05;65.28;;;51.33;;
46753;SDS011;32500;50.620;3.400;2022-08-03T05:53:35;67.03;;;51.78;;
46753;SDS011;32500;50.620;3.400;2022-08-03T05:56:01;65.38;;;51.63;;
46753;SDS011;32500;50.620;3.400;2022-08-03T05:58:27;68.30;;;51.60;;
46753;SDS011;32500;50.620;3.400;2022-08-03T06:00:53;66.22;;;51.58;;
46753;SDS011;32500;50.620;3.400;2022-08-03T06:03:18;63.05;;;51.47;;
46753;SDS011;32500;50.620;3.400;2022-08-03T06:05:44;66.22;;;51.83;;
46753;SDS011;32500;50.620;3.400;2022-08-03T06:08:10;65.88;;;51.58;;
46753;SDS011;32500;50.620;3.400;2022-08-03T06:10:36;65.32;;;51.85;;
46753;SDS011;32500;50.620;3.400;2022-08-03T06:13:02;65.15;;;51.42;;
46753;SDS011;32500;50.620;3.400;2022-08-03T06:15:27;65.15;;;51.63;;
46753;SDS011;32500;50.620;3.400;2022-08-03T06:17:54;65.93;;;51.72;;
46753;SDS011;32500;50.620;3.400;2022-08-03T06:20:22;65.78;;;51.92;;
46753;SDS011;32500;50.620;3.400;2022-08-03T06:22:48;66.90;;;51.38;;
46753;SDS011;32500;50.620;3.400;2022-08-03T06:25:13;65.20;;;51.58;;
46753;SDS011;32500;50.620;3.400;2022-08-03T06:27:40;63.50;;;51.15;;
46753;SDS011;32500;50.620;3.400;2022-08-03T06:30:07;65.78;;;51.60;;
46753;SDS011;32500;50.620;3.400;2022-08-03T06:32:37;64.80;;;51.53;;
46753;SDS011;32500;50.620;3.400;2022-08-03T06:35:07;65.97;;;51.38;;
46753;SDS011;32500;50.620;3.400;2022-08-03T06:37:46;64.80;;;51.25;;
46753;SDS011;32500;50.620;3.400;2022-08-03T06:40:15;63.17;;;51.17;;
46753;SDS011;32500;50.620;3.400;2022-08-03T06:42:42;64.63;;;51.00;;
46753;SDS011;32500;50.620;3.400;2022-08-03T06:45:09;67.32;;;51.45;;
46753;SDS011;32500;50.620;3.400;2022-08-03T06:47:35;65.38;;;51.83;;
46753;SDS011;32500;50.620;3.400;2022-08-03T06:50:02;66.20;;;51.47;;
46753;SDS011;32500;50.620;3.400;2022-08-03T06:52:29;65.35;;;51.65;;
46753;SDS011;32500;50.620;3.400;2022-08-03T06:54:55;63.25;;;50.95;;
46753;SDS011;32500;50.620;3.400;2022-08-03T06:57:21;65.47;;;51.47;;
46753;SDS011;32500;50.620;3.400;2022-08-03T06:59:46;63.60;;;51.08;;
46753;SDS011;32500;50.620;3.400;2022-08-03T07:02:12;64.55;;;51.33;;
46753;SDS011;32500;50.620;3.400;2022-08-03T07:04:38;64.18;;;51.67;;
46753;SDS011;32500;50.620;3.400;2022-08-03T07:07:04;62.88;;;51.40;;
46753;SDS011;32500;50.620;3.400;2022-08-03T07:09:29;67.43;;;51.83;;
46753;SDS011;32500;50.620;3.400;2022-08-03T07:11:55;63.72;;;51.63;;
46753;SDS011;32500;50.620;3.400;2022-08-03T07:14:21;64.60;;;51.63;;
46753;SDS011;32500;50.620;3.400;2022-08-03T07:16:47;63.25;;;51.55;;
46753;SDS011;32500;50.620;3.400;2022-08-03T07:19:12;66.88;;;51.90;;
46753;SDS011;32500;50.620;3.400;2022-08-03T07:21:38;64.60;;;51.45;;
46753;SDS011;32500;50.620;3.400;2022-08-03T07:24:04;66.13;;;51.67;;
46753;SDS011;32500;50.620;3.400;2022-08-03T07:26:30;65.05;;;51.80;;
46753;SDS011;32500;50.620;3.400;2022-08-03T07:28:55;63.92;;;51.20;;
46753;SDS011;32500;50.620;3.400;2022-08-03T07:31:21;63.17;;;51.45;;
46753;SDS011;32500;50.620;3.400;2022-08-03T07:33:47;63.65;;;51.53;;
46753;SDS011;32500;50.620;3.400;2022-08-03T07:36:12;64.05;;;51.75;;
46753;SDS011;32500;50.620;3.400;2022-08-03T07:38:38;64.45;;;51.70;;
46753;SDS011;32500;50.620;3.400;2022-08-03T07:41:03;67.10;;;52.13;;
46753;SDS011;32500;50.620;3.400;2022-08-03T07:43:29;62.35;;;51.38;;
46753;SDS011;32500;50.620;3.400;2022-08-03T07:45:55;65.50;;;51.95;;
46753;SDS011;32500;50.620;3.400;2022-08-03T07:48:20;64.80;;;51.78;;
46753;SDS011;32500;50.620;3.400;2022-08-03T07:50:46;63.72;;;51.45;;
46753;SDS011;32500;50.620;3.400;2022-08-03T07:53:12;67.50;;;51.72;;
46753;SDS011;32500;50.620;3.400;2022-08-03T07:55:38;65.10;;;51.67;;
46753;SDS011;32500;50.620;3.400;2022-08-03T07:58:12;63.45;;;51.28;;
46753;SDS011;32500;50.620;3.400;2022-08-03T08:00:42;66.70;;;51.85;;
46753;SDS011;32500;50.620;3.400;2022-08-03T08:03:09;65.30;;;51.47;;
46753;SDS011;32500;50.620;3.400;2022-08-03T08:05:36;64.85;;;51.67;;
46753;SDS011;32500;50.620;3.400;2022-08-03T08:08:02;68.60;;;52.05;;
46753;SDS011;32500;50.620;3.400;2022-08-03T08:10:28;65.10;;;51.70;;
46753;SDS011;32500;50.620;3.400;2022-08-03T08:12:54;64.07;;;51.40;;
46753;SDS011;32500;50.620;3.400;2022-08-03T08:15:21;64.72;;;51.40;;
46753;SDS011;32500;50.620;3.400;2022-08-03T08:17:47;63.25;;;51.67;;
46753;SDS011;32500;50.620;3.400;2022-08-03T08:20:22;63.97;;;51.67;;
46753;SDS011;32500;50.620;3.400;2022-08-03T08:22:50;64.38;;;51.65;;
46753;SDS011;32500;50.620;3.400;2022-08-03T08:25:15;67.47;;;52.15;;
46753;SDS011;32500;50.620;3.400;2022-08-03T08:27:45;65.78;;;52.00;;
46753;SDS011;32500;50.620;3.400;2022-08-03T08:30:12;63.80;;;51.47;;
46753;SDS011;32500;50.620;3.400;2022-08-03T08:32:39;63.88;;;51.80;;
46753;SDS011;32500;50.620;3.400;2022-08-03T08:35:05;64.28;;;51.83;;
46753;SDS011;32500;50.620;3.400;2022-08-03T08:37:31;65.07;;;51.75;;
46753;SDS011;32500;50.620;3.400;2022-08-03T08:39:57;66.00;;;51.92;;
46753;SDS011;32500;50.620;3.400;2022-08-03T08:42:23;64.65;;;51.60;;
46753;SDS011;32500;50.620;3.400;2022-08-03T08:44:49;65.93;;;51.63;;
46753;SDS011;32500;50.620;3.400;2022-08-03T08:47:16;65.53;;;51.78;;
46753;SDS011;32500;50.620;3.400;2022-08-03T08:49:43;63.92;;;51.83;;
46753;SDS011;32500;50.620;3.400;2022-08-03T08:52:10;65.78;;;51.75;;
46753;SDS011;32500;50.620;3.400;2022-08-03T08:54:37;65.20;;;51.72;;
46753;SDS011;32500;50.620;3.400;2022-08-03T08:57:05;63.22;;;51.65;;
46753;SDS011;32500;50.620;3.400;2022-08-03T08:59:33;63.95;;;51.58;;
46753;SDS011;32500;50.620;3.400;2022-08-03T09:01:59;65.45;;;51.75;;
46753;SDS011;32500;50.620;3.400;2022-08-03T09:04:25;63.10;;;51.67;;
46753;SDS011;32500;50.620;3.400;2022-08-03T09:06:54;64.88;;;51.78;;
46753;SDS011;32500;50.620;3.400;2022-08-03T09:09:22;66.93;;;51.85;;
46753;SDS011;32500;50.620;3.400;2022-08-03T09:11:48;66.38;;;52.17;;
46753;SDS011;32500;50.620;3.400;2022-08-03T09:14:14;65.45;;;52.10;;
46753;SDS011;32500;50.620;3.400;2022-08-03T09:16:58;64.40;;;51.67;;
46753;SDS011;32500;50.620;3.400;2022-08-03T09:19:32;64.38;;;51.47;;
46753;SDS011;32500;50.620;3.400;2022-08-03T09:24:33;64.32;;;51.85;;
46753;SDS011;32500;50.620;3.400;2022-08-03T09:27:00;64.35;;;51.80;;
46753;SDS011;32500;50.620;3.400;2022-08-03T09:29:26;64.45;;;51.78;;
46753;SDS011;32500;50.620;3.400;2022-08-03T09:32:00;64.05;;;51.63;;
46753;SDS011;32500;50.620;3.400;2022-08-03T09:34:27;63.72;;;51.67;;
46753;SDS011;32500;50.620;3.400;2022-08-03T09:36:53;65.97;;;51.83;;
46753;SDS011;32500;50.620;3.400;2022-08-03T09:39:22;66.20;;;51.75;;
46753;SDS011;32500;50.620;3.400;2022-08-03T09:42:17;64.13;;;51.90;;
46753;SDS011;32500;50.620;3.400;2022-08-03T09:44:47;63.50;;;51.72;;
46753;SDS011;32500;50.620;3.400;2022-08-03T09:47:15;68.55;;;52.13;;
46753;SDS011;32500;50.620;3.400;2022-08-03T09:49:59;64.63;;;51.70;;
46753;SDS011;32500;50.620;3.400;2022-08-03T09:52:30;65.55;;;51.95;;
46753;SDS011;32500;50.620;3.400;2022-08-03T09:54:58;66.15;;;51.80;;
46753;SDS011;32500;50.620;3.400;2022-08-03T09:57:25;64.65;;;51.85;;
46753;SDS011;32500;50.620;3.400;2022-08-03T09:59:56;65.10;;;51.97;;
46753;SDS011;32500;50.620;3.400;2022-08-03T10:02:34;64.78;;;51.65;;
46753;SDS011;32500;50.620;3.400;2022-08-03T10:05:02;64.70;;;51.80;;
46753;SDS011;32500;50.620;3.400;2022-08-03T10:07:28;64.13;;;51.95;;
46753;SDS011;32500;50.620;3.400;2022-08-03T10:09:55;64.97;;;51.78;;
46753;SDS011;32500;50.620;3.400;2022-08-03T10:12:23;68.93;;;52.05;;
46753;SDS011;32500;50.620;3.400;2022-08-03T10:14:49;63.58;;;51.63;;
46753;SDS011;32500;50.620;3.400;2022-08-03T10:17:16;66.57;;;52.13;;
46753;SDS011;32500;50.620;3.400;2022-08-03T10:19:42;63.97;;;51.92;;
46753;SDS011;32500;50.620;3.400;2022-08-03T10:22:09;63.85;;;52.03;;
46753;SDS011;32500;50.620;3.400;2022-08-03T10:24:51;65.13;;;51.95;;
46753;SDS011;32500;50.620;3.400;2022-08-03T10:27:25;64.63;;;51.92;;
46753;SDS011;32500;50.620;3.400;2022-08-03T10:29:55;65.70;;;51.57;;
46753;SDS011;32500;50.620;3.400;2022-08-03T10:35:02;64.38;;;51.97;;
46753;SDS011;32500;50.620;3.400;2022-08-03T10:37:36;65.55;;;52.22;;
46753;SDS011;32500;50.620;3.400;2022-08-03T10:40:07;63.08;;;51.85;;
46753;SDS011;32500;50.620;3.400;2022-08-03T10:42:38;64.50;;;52.03;;
46753;SDS011;32500;50.620;3.400;2022-08-03T10:45:08;66.78;;;52.25;;
46753;SDS011;32500;50.620;3.400;2022-08-03T10:47:43;65.40;;;52.05;;
46753;SDS011;32500;50.620;3.400;2022-08-03T10:50:09;66.18;;;52.10;;
46753;SDS011;32500;50.620;3.400;2022-08-03T10:52:52;64.13;;;52.22;;
46753;SDS011;32500;50.620;3.400;2022-08-03T11:01:05;64.22;;;52.22;;
46753;SDS011;32500;50.620;3.400;2022-08-03T11:03:33;65.22;;;52.08;;
46753;SDS011;32500;50.620;3.400;2022-08-03T11:06:22;65.60;;;52.22;;
46753;SDS011;32500;50.620;3.400;2022-08-03T11:11:38;65.50;;;51.72;;
46753;SDS011;32500;50.620;3.400;2022-08-03T11:14:09;64.63;;;51.78;;
46753;SDS011;32500;50.620;3.400;2022-08-03T11:16:46;65.43;;;52.00;;
46753;SDS011;32500;50.620;3.400;2022-08-03T11:19:17;64.30;;;51.97;;
46753;SDS011;32500;50.620;3.400;2022-08-03T11:29:53;66.72;;;51.67;;
46753;SDS011;32500;50.620;3.400;2022-08-03T11:35:11;63.28;;;51.90;;
46753;SDS011;32500;50.620;3.400;2022-08-03T11:38:00;66.47;;;52.13;;
46753;SDS011;32500;50.620;3.400;2022-08-03T11:40:40;65.70;;;52.10;;
46753;SDS011;32500;50.620;3.400;2022-08-03T11:46:06;64.85;;;52.22;;
46753;SDS011;32500;50.620;3.400;2022-08-03T11:48:38;65.90;;;51.83;;
46753;SDS011;32500;50.620;3.400;2022-08-03T11:51:17;63.05;;;51.92;;
46753;SDS011;32500;50.620;3.400;2022-08-03T11:53:51;65.35;;;52.05;;
46753;SDS011;32500;50.620;3.400;2022-08-03T11:56:18;64.72;;;51.92;;
46753;SDS011;32500;50.620;3.400;2022-08-03T11:58:48;63.97;;;52.00;;
46753;SDS011;32500;50.620;3.400;2022-08-03T12:01:16;65.35;;;52.30;;
46753;SDS011;32500;50.620;3.400;2022-08-03T12:03:42;64.68;;;51.80;;
46753;SDS011;32500;50.620;3.400;2022-08-03T12:06:08;64.90;;;52.13;;
46753;SDS011;32500;50.620;3.400;2022-08-03T12:08:35;63.92;;;52.22;;
46753;SDS011;32500;50.620;3.400;2022-08-03T12:11:02;64.82;;;52.28;;
46753;SDS011;32500;50.620;3.400;2022-08-03T12:13:41;64.72;;;52.50;;
46753;SDS011;32500;50.620;3.400;2022-08-03T12:16:25;63.72;;;52.03;;
46753;SDS011;32500;50.620;3.400;2022-08-03T12:19:02;63.80;;;52.00;;
46753;SDS011;32500;50.620;3.400;2022-08-03T12:21:29;65.47;;;51.97;;
46753;SDS011;32500;50.620;3.400;2022-08-03T12:23:56;63.78;;;52.00;;
46753;SDS011;32500;50.620;3.400;2022-08-03T12:26:24;63.88;;;51.95;;
46753;SDS011;32500;50.620;3.400;2022-08-03T12:28:50;63.90;;;51.97;;
46753;SDS011;32500;50.620;3.400;2022-08-03T12:31:16;65.40;;;51.97;;
46753;SDS011;32500;50.620;3.400;2022-08-03T12:36:22;63.53;;;51.75;;
46753;SDS011;32500;50.620;3.400;2022-08-03T12:38:57;64.20;;;52.20;;
46753;SDS011;32500;50.620;3.400;2022-08-03T12:41:28;66.32;;;52.55;;
46753;SDS011;32500;50.620;3.400;2022-08-03T12:44:05;63.67;;;52.35;;
46753;SDS011;32500;50.620;3.400;2022-08-03T12:46:41;64.72;;;52.10;;
46753;SDS011;32500;50.620;3.400;2022-08-03T12:51:33;65.82;;;52.22;;
46753;SDS011;32500;50.620;3.400;2022-08-03T12:54:01;64.78;;;52.28;;
46753;SDS011;32500;50.620;3.400;2022-08-03T12:56:27;64.03;;;52.42;;
46753;SDS011;32500;50.620;3.400;2022-08-03T12:58:53;66.82;;;52.45;;
46753;SDS011;32500;50.620;3.400;2022-08-03T13:01:19;64.07;;;52.33;;
46753;SDS011;32500;50.620;3.400;2022-08-03T13:03:48;65.82;;;52.33;;
46753;SDS011;32500;50.620;3.400;2022-08-03T13:06:19;64.32;;;52.33;;
46753;SDS011;32500;50.620;3.400;2022-08-03T13:08:49;64.97;;;52.25;;
46753;SDS011;32500;50.620;3.400;2022-08-03T13:11:31;65.18;;;52.25;;
46753;SDS011;32500;50.620;3.400;2022-08-03T13:13:57;66.03;;;52.38;;
46753;SDS011;32500;50.620;3.400;2022-08-03T13:16:23;65.18;;;52.15;;
46753;SDS011;32500;50.620;3.400;2022-08-03T13:18:49;65.00;;;52.45;;
46753;SDS011;32500;50.620;3.400;2022-08-03T13:21:16;64.93;;;52.03;;
46753;SDS011;32500;50.620;3.400;2022-08-03T13:23:43;63.90;;;52.08;;
46753;SDS011;32500;50.620;3.400;2022-08-03T13:26:10;63.50;;;52.25;;
46753;SDS011;32500;50.620;3.400;2022-08-03T13:28:39;63.33;;;52.13;;
46753;SDS011;32500;50.620;3.400;2022-08-03T13:31:05;63.55;;;52.15;;
46753;SDS011;32500;50.620;3.400;2022-08-03T13:33:30;64.13;;;51.92;;
46753;SDS011;32500;50.620;3.400;2022-08-03T13:35:56;63.90;;;52.00;;
46753;SDS011;32500;50.620;3.400;2022-08-03T13:38:22;64.07;;;52.05;;
46753;SDS011;32500;50.620;3.400;2022-08-03T13:40:48;63.13;;;52.03;;
46753;SDS011;32500;50.620;3.400;2022-08-03T13:43:16;63.70;;;51.92;;
46753;SDS011;32500;50.620;3.400;2022-08-03T13:45:41;71.35;;;52.10;;
46753;SDS011;32500;50.620;3.400;2022-08-03T13:48:07;67.25;;;52.15;;
46753;SDS011;32500;50.620;3.400;2022-08-03T13:50:33;66.43;;;52.15;;
46753;SDS011;32500;50.620;3.400;2022-08-03T13:52:58;71.97;;;52.55;;
46753;SDS011;32500;50.620;3.400;2022-08-03T13:55:24;64.55;;;52.30;;
46753;SDS011;32500;50.620;3.400;2022-08-03T13:57:49;65.18;;;52.15;;
46753;SDS011;32500;50.620;3.400;2022-08-03T14:00:16;64.25;;;52.13;;
46753;SDS011;32500;50.620;3.400;2022-08-03T14:02:43;65.00;;;52.42;;
46753;SDS011;32500;50.620;3.400;2022-08-03T14:05:09;65.32;;;52.30;;
46753;SDS011;32500;50.620;3.400;2022-08-03T14:07:35;64.28;;;52.30;;
46753;SDS011;32500;50.620;3.400;2022-08-03T14:10:00;69.05;;;52.60;;
46753;SDS011;32500;50.620;3.400;2022-08-03T14:12:26;64.28;;;52.08;;
46753;SDS011;32500;50.620;3.400;2022-08-03T14:14:52;66.65;;;52.60;;
46753;SDS011;32500;50.620;3.400;2022-08-03T14:17:18;65.93;;;52.58;;
46753;SDS011;32500;50.620;3.400;2022-08-03T14:19:44;64.18;;;52.25;;
46753;SDS011;32500;50.620;3.400;2022-08-03T14:22:09;65.20;;;52.25;;
46753;SDS011;32500;50.620;3.400;2022-08-03T14:24:35;64.22;;;52.28;;
46753;SDS011;32500;50.620;3.400;2022-08-03T14:27:01;63.47;;;51.95;;
46753;SDS011;32500;50.620;3.400;2022-08-03T14:29:26;65.85;;;52.33;;
46753;SDS011;32500;50.620;3.400;2022-08-03T14:31:52;66.47;;;52.30;;
46753;SDS011;32500;50.620;3.400;2022-08-03T14:34:18;64.60;;;52.10;;
46753;SDS011;32500;50.620;3.400;2022-08-03T14:36:43;66.30;;;52.38;;
46753;SDS011;32500;50.620;3.400;2022-08-03T14:39:11;65.78;;;52.63;;
46753;SDS011;32500;50.620;3.400;2022-08-03T14:41:37;65.25;;;52.60;;
46753;SDS011;32500;50.620;3.400;2022-08-03T14:44:03;69.35;;;52.83;;
46753;SDS011;32500;50.620;3.400;2022-08-03T14:46:29;65.88;;;52.38;;
46753;SDS011;32500;50.620;3.400;2022-08-03T14:48:56;67.75;;;52.67;;
46753;SDS011;32500;50.620;3.400;2022-08-03T14:51:22;67.88;;;52.65;;
46753;SDS011;32500;50.620;3.400;2022-08-03T14:53:48;67.07;;;52.75;;
46753;SDS011;32500;50.620;3.400;2022-08-03T14:56:13;66.32;;;52.65;;
46753;SDS011;32500;50.620;3.400;2022-08-03T14:58:39;64.72;;;52.85;;
46753;SDS011;32500;50.620;3.400;2022-08-03T15:01:05;69.53;;;52.90;;
46753;SDS011;32500;50.620;3.400;2022-08-03T15:03:31;74.38;;;52.78;;
46753;SDS011;32500;50.620;3.400;2022-08-03T15:05:57;67.75;;;52.80;;
46753;SDS011;32500;50.620;3.400;2022-08-03T15:08:23;65.72;;;52.53;;
46753;SDS011;32500;50.620;3.400;2022-08-03T15:10:50;65.25;;;52.72;;
46753;SDS011;32500;50.620;3.400;2022-08-03T15:13:16;69.07;;;52.50;;
46753;SDS011;32500;50.620;3.400;2022-08-03T15:15:43;66.43;;;52.78;;
46753;SDS011;32500;50.620;3.400;2022-08-03T15:18:09;67.82;;;52.85;;